Time;durP1;ratioP1;P1;durP2;ratioP2;P2;SDS_P1;SDS_P2;PMS_P1;PMS_P2;Temp;Humidity;BMP_temperature;BMP_pressure;BME280_temperature;BME280_humidity;BME280_pressure;Samples;Min_cycle;Max_cycle;Signal;HPM_P1;HPM_P2
2020/12/28 00:01:42;;;;;;;1999.90;999.90;;;;;;;-7.14;98.12;102201.52;1738324;82;21276;-61
2020/12/28 00:04:10;;;;;;;1999.90;999.90;;;;;;;-7.15;98.11;102205.20;1741370;81;20999;-62
2020/12/28 00:06:38;;;;;;;1999.90;999.90;;;;;;;-7.13;98.24;102199.66;1734299;82;21538;-61
2020/12/28 00:09:06;;;;;;;1999.90;999.90;;;;;;;-7.12;98.24;102214.81;1739209;82;21091;-67
2020/12/28 00:11:34;;;;;;;1999.90;999.90;;;;;;;-7.12;98.23;102202.20;1744877;82;21443;-61
2020/12/28 00:14:01;;;;;;;1999.90;999.90;;;;;;;-7.12;98.27;102198.17;1745622;82;20968;-66
2020/12/28 00:16:29;;;;;;;1999.90;999.90;;;;;;;-7.12;98.18;102206.73;1745809;80;20987;-66
2020/12/28 00:18:57;;;;;;;1999.90;999.90;;;;;;;-7.12;98.21;102208.09;1746618;82;21047;-64
2020/12/28 00:21:25;;;;;;;1999.90;999.90;;;;;;;-7.15;98.15;102198.47;1744079;80;21095;-70
2020/12/28 00:23:53;;;;;;;1999.90;999.90;;;;;;;-7.15;98.14;102203.85;1742258;82;21208;-69
2020/12/28 00:26:21;;;;;;;1999.90;999.90;;;;;;;-7.17;98.12;102197.28;1742973;82;21122;-61
2020/12/28 00:28:51;;;;;;;1999.90;999.90;;;;;;;-7.22;98.01;102196.05;1745007;81;21573;-66
2020/12/28 00:31:18;;;;;;;1999.90;999.90;;;;;;;-7.21;98.02;102195.89;1743359;81;21017;-67
2020/12/28 00:33:46;;;;;;;1999.90;999.90;;;;;;;-7.22;98.03;102190.66;1740736;81;21083;-66
2020/12/28 00:36:15;;;;;;;1999.90;999.90;;;;;;;-7.23;98.01;102188.97;1743091;82;22247;-61
2020/12/28 00:38:42;;;;;;;1999.90;999.90;;;;;;;-7.27;97.85;102188.94;1744746;81;21134;-67
2020/12/28 00:41:12;;;;;;;1999.90;999.90;;;;;;;-7.31;97.69;102192.92;1742293;80;21114;-66
2020/12/28 00:43:43;;;;;;;1999.90;999.90;;;;;;;-7.33;97.70;102186.35;1745106;81;21118;-61
2020/12/28 00:46:12;;;;;;;1999.90;999.90;;;;;;;-7.32;97.88;102178.63;1742188;82;21525;-61
2020/12/28 00:48:41;;;;;;;1999.90;999.90;;;;;;;-7.31;97.93;102184.36;1744783;80;21365;-61
2020/12/28 00:51:12;;;;;;;1999.90;999.90;;;;;;;-7.33;97.83;102192.23;1738838;82;21127;-63
2020/12/28 00:53:42;;;;;;;1999.90;999.90;;;;;;;-7.37;97.64;102190.34;1743040;81;20997;-69
2020/12/28 00:56:13;;;;;;;1999.90;999.90;;;;;;;-7.43;97.48;102182.03;1722274;82;21119;-65
2020/12/28 00:58:42;;;;;;;1999.90;999.90;;;;;;;-7.45;97.48;102180.00;1744863;81;21099;-64
2020/12/28 01:01:10;;;;;;;1999.90;999.90;;;;;;;-7.50;97.42;102181.30;1746304;81;21364;-69
2020/12/28 01:03:38;;;;;;;1999.90;999.90;;;;;;;-7.50;97.56;102173.73;1744820;80;21110;-64
2020/12/28 01:06:17;;;;;;;1999.90;999.90;;;;;;;-7.49;97.68;102174.92;1742537;82;21621;-69
2020/12/28 01:08:46;;;;;;;1999.90;999.90;;;;;;;-7.50;97.65;102167.00;1735571;80;21107;-69
2020/12/28 01:11:20;;;;;;;1999.90;999.90;;;;;;;-7.57;97.50;102156.00;1742845;81;21525;-68
2020/12/28 01:13:50;;;;;;;1999.90;999.90;;;;;;;-7.56;97.60;102161.73;1744558;81;21325;-62
2020/12/28 01:16:18;;;;;;;1999.90;999.90;;;;;;;-7.57;97.54;102165.91;1740826;82;21149;-67
2020/12/28 01:18:46;;;;;;;1999.90;999.90;;;;;;;-7.61;97.26;102163.18;1744469;80;21091;-61
2020/12/28 01:21:22;;;;;;;1999.90;999.90;;;;;;;-7.61;97.31;102165.87;1741504;82;21158;-66
2020/12/28 01:23:50;;;;;;;1999.90;999.90;;;;;;;-7.61;97.34;102163.18;1745478;82;21102;-67
2020/12/28 01:26:19;;;;;;;1999.90;999.90;;;;;;;-7.61;97.35;102165.87;1722737;82;21364;-62
2020/12/28 01:28:48;;;;;;;1999.90;999.90;;;;;;;-7.63;97.32;102157.11;1743588;80;21113;-62
2020/12/28 01:31:17;;;;;;;1999.90;999.90;;;;;;;-7.64;97.22;102154.07;1722321;82;21166;-62
2020/12/28 01:34:02;;;;;;;1999.90;999.90;;;;;;;-7.67;97.21;102164.63;1739052;81;21119;-62
2020/12/28 01:36:32;;;;;;;1999.90;999.90;;;;;;;-7.72;96.96;102172.80;1739624;81;21110;-64
2020/12/28 01:39:01;;;;;;;1999.90;999.90;;;;;;;-7.83;96.74;102173.84;1726382;81;21486;-67
2020/12/28 01:41:29;;;;;;;1999.90;999.90;;;;;;;-7.84;96.85;102174.84;1746416;81;21150;-62
2020/12/28 01:43:57;;;;;;;1999.90;999.90;;;;;;;-7.84;96.95;102161.40;1748376;81;20983;-67
2020/12/28 01:46:25;;;;;;;1999.90;999.90;;;;;;;-7.84;96.93;102160.91;1749680;80;21126;-67
2020/12/28 01:48:54;;;;;;;1999.90;999.90;;;;;;;-7.83;96.97;102165.78;1720048;81;21110;-67
2020/12/28 01:51:22;;;;;;;1999.90;999.90;;;;;;;-7.88;96.82;102170.26;1749636;80;21364;-62
2020/12/28 01:53:50;;;;;;;1999.90;999.90;;;;;;;-7.91;96.80;102160.30;1720350;81;21143;-62
2020/12/28 01:56:21;;;;;;;1999.90;999.90;;;;;;;-7.92;96.76;102162.64;1743962;80;21562;-62
2020/12/28 01:58:51;;;;;;;1999.90;999.90;;;;;;;-7.96;96.58;102162.09;1746052;80;21102;-67
2020/12/28 02:01:20;;;;;;;1999.90;999.90;;;;;;;-7.97;96.54;102159.55;1742451;80;21648;-62
2020/12/28 02:03:48;;;;;;;1999.90;999.90;;;;;;;-8.01;96.41;102158.16;1687025;83;21672;-62
2020/12/28 02:06:26;;;;;;;1999.90;999.90;;;;;;;-7.98;96.46;102153.34;1839446;76;28207;-69
2020/12/28 02:08:55;;;;;;;1999.90;999.90;;;;;;;-8.01;96.52;102160.34;1795385;77;20977;-69
2020/12/28 02:11:23;;;;;;;1999.90;999.90;;;;;;;-8.00;96.56;102159.35;1826196;77;21179;-69
2020/12/28 02:13:51;;;;;;;1999.90;999.90;;;;;;;-7.97;96.72;102159.55;1821461;77;21020;-69
2020/12/28 02:16:37;;;;;;;1999.90;999.90;;;;;;;-7.91;96.76;102150.40;1838898;76;28210;-66
2020/12/28 02:19:07;;;;;;;1999.90;999.90;;;;;;;-7.93;96.85;102147.52;1800415;79;20970;-68
2020/12/28 02:21:36;;;;;;;1999.90;999.90;;;;;;;-7.93;96.84;102162.30;1765527;80;21352;-62
2020/12/28 02:24:04;;;;;;;1999.90;999.90;;;;;;;-8.00;96.56;102159.85;1746715;81;21564;-68
2020/12/28 02:26:34;;;;;;;1999.90;999.90;;;;;;;-8.02;96.65;102151.09;1739664;81;21518;-68
2020/12/28 02:29:02;;;;;;;1999.90;999.90;;;;;;;-8.01;96.72;102150.09;1761126;79;21028;-68
2020/12/28 02:31:30;;;;;;;1999.90;999.90;;;;;;;-8.02;96.68;102143.88;1747794;81;20999;-63
2020/12/28 02:34:02;;;;;;;1999.90;999.90;;;;;;;-8.03;96.65;102148.06;1764846;81;21214;-68
2020/12/28 02:36:31;;;;;;;1999.90;999.90;;;;;;;-8.08;96.51;102147.66;1748511;81;21562;-62
2020/12/28 02:39:00;;;;;;;1999.90;999.90;;;;;;;-8.10;96.56;102142.43;1753096;81;21000;-62
2020/12/28 02:41:29;;;;;;;1999.90;999.90;;;;;;;-8.08;96.68;102136.91;1748682;81;21107;-62
2020/12/28 02:44:16;;;;;;;1999.90;999.90;;;;;;;-8.08;96.63;102139.09;1754488;80;20966;-62
2020/12/28 02:47:01;;;;;;;1999.90;999.90;;;;;;;-8.13;96.43;102130.14;1753659;80;21364;-68
2020/12/28 02:49:47;;;;;;;1999.90;999.90;;;;;;;-8.15;96.33;102138.00;1748879;81;21558;-62
2020/12/28 02:52:33;;;;;;;1999.90;999.90;;;;;;;-8.22;96.10;102141.77;1755044;80;21110;-63
2020/12/28 02:55:20;;;;;;;1999.90;999.90;;;;;;;-8.32;95.89;102150.36;1754722;80;21064;-63
2020/12/28 02:58:06;;;;;;;1999.90;999.90;;;;;;;-8.34;95.92;102151.53;1756450;80;21137;-63
2020/12/28 03:00:52;;;;;;;1999.90;999.90;;;;;;;-8.34;96.02;102151.53;1757706;80;21150;-63
2020/12/28 03:03:37;;;;;;;1999.90;999.90;;;;;;;-8.40;95.74;102154.31;1750693;81;20981;-68
2020/12/28 03:06:23;;;;;;;1999.90;999.90;;;;;;;-8.51;95.53;102143.74;1751361;80;21125;-63
2020/12/28 03:09:08;;;;;;;1999.90;999.90;;;;;;;-8.54;95.68;102141.34;1751169;81;21598;-62
2020/12/28 03:11:54;;;;;;;1999.90;999.90;;;;;;;-8.51;95.89;102149.11;1753444;81;21150;-68
2020/12/28 03:14:40;;;;;;;1999.90;999.90;;;;;;;-8.49;95.93;102155.19;1755191;81;21793;-62
2020/12/28 03:17:25;;;;;;;1999.90;999.90;;;;;;;-8.45;96.01;102145.84;1750236;81;20997;-68
2020/12/28 03:20:12;;;;;;;1999.90;999.90;;;;;;;-8.44;96.07;102139.48;1748668;81;21016;-63
2020/12/28 03:22:59;;;;;;;1999.90;999.90;;;;;;;-8.43;96.08;102141.17;1745753;81;20996;-63
2020/12/28 03:25:44;;;;;;;1999.90;999.90;;;;;;;-8.48;95.88;102140.77;1741627;81;21002;-68
2020/12/28 03:28:30;;;;;;;1999.90;999.90;;;;;;;-8.54;95.81;102140.01;1748716;81;21154;-68
2020/12/28 03:31:16;;;;;;;1999.90;999.90;;;;;;;-8.48;95.99;102146.14;1850769;76;28142;-69
2020/12/28 03:34:02;;;;;;;1999.90;999.90;;;;;;;-8.51;96.08;102131.66;1842097;77;20956;-69
2020/12/28 03:36:48;;;;;;;1999.90;999.90;;;;;;;-8.49;96.12;102139.08;1753404;80;21359;-63
2020/12/28 03:39:34;;;;;;;1999.90;999.90;;;;;;;-8.51;96.00;102134.34;1762428;80;20953;-63
2020/12/28 03:42:20;;;;;;;1999.90;999.90;;;;;;;-8.55;95.81;102136.97;1798258;78;20981;-69
2020/12/28 03:45:06;;;;;;;1999.90;999.90;;;;;;;-8.63;95.57;102135.02;1801096;79;20938;-69
2020/12/28 03:47:51;;;;;;;1999.90;999.90;;;;;;;-8.69;95.42;102132.06;1791697;79;20981;-64
2020/12/28 03:52:47;;;;;;;1999.90;999.90;;;;;;;-8.75;95.25;102130.80;1790020;79;28626;-68
2020/12/28 03:55:33;;;;;;;1999.90;999.90;;;;;;;-8.85;95.17;102131.31;1754684;80;20926;-69
2020/12/28 03:58:19;;;;;;;1999.90;999.90;;;;;;;-8.96;94.93;102124.27;1742936;81;22325;-69
2020/12/28 04:01:06;;;;;;;1999.90;999.90;;;;;;;-9.05;94.72;102128.30;1737085;81;20997;-65
2020/12/28 04:03:46;;;;;;;1999.90;999.90;;;;;;;-9.05;94.68;102130.98;1818695;75;28159;-61
2020/12/28 04:06:31;;;;;;;1999.90;999.90;;;;;;;-9.19;94.47;102135.80;1791527;79;21138;-62
2020/12/28 04:09:17;;;;;;;1999.90;999.90;;;;;;;-9.25;94.59;102136.36;1787748;79;21247;-64
2020/12/28 04:12:04;;;;;;;1999.90;999.90;;;;;;;-9.17;94.88;102131.14;1822685;76;28192;-61
2020/12/28 04:14:33;;;;;;;1999.90;999.90;;;;;;;-9.15;95.06;102135.02;1789624;78;21020;-67
2020/12/28 04:17:01;;;;;;;1999.90;999.90;;;;;;;-9.13;95.18;102128.52;1804306;78;21361;-64
2020/12/28 04:19:29;;;;;;;1999.90;999.90;;;;;;;-9.09;95.32;102130.42;1799939;78;20982;-64
2020/12/28 04:21:56;;;;;;;1999.90;999.90;;;;;;;-9.04;95.50;102126.83;1797516;78;21007;-65
2020/12/28 04:32:54;;;;;;;1999.90;999.90;;;;;;;-8.61;97.02;102133.53;1759246;79;28392;-63
2020/12/28 04:35:21;;;;;;;1999.90;999.90;;;;;;;-8.57;97.36;102133.59;1732048;82;20974;-63
2020/12/28 04:37:49;;;;;;;1999.90;999.90;;;;;;;-8.46;97.65;102138.78;1739217;82;21372;-63
2020/12/28 04:40:18;;;;;;;1999.90;999.90;;;;;;;-8.36;97.95;102141.44;1735693;82;21160;-68
2020/12/28 04:42:46;;;;;;;1999.90;999.90;;;;;;;-8.28;98.18;102150.42;1732235;82;21606;-68
2020/12/28 04:45:13;;;;;;;1999.90;999.90;;;;;;;-8.24;98.19;102146.95;1734516;82;20977;-68
2020/12/28 04:47:41;;;;;;;1999.90;999.90;;;;;;;-8.42;96.99;102152.27;1738750;80;21076;-68
2020/12/28 04:50:11;;;;;;;1999.90;999.90;;;;;;;-8.65;96.15;102151.76;1731359;82;22243;-68
2020/12/28 04:52:38;;;;;;;1999.90;999.90;;;;;;;-8.80;95.89;102150.02;1729163;81;21219;-63
2020/12/28 05:03:07;;;;;;;1999.90;999.90;;;;;;;-8.60;96.58;102154.86;1760040;79;28253;-68
2020/12/28 05:05:46;;;;;;;1999.90;999.90;;;;;;;-8.67;96.40;102159.11;1713228;82;21032;-62
2020/12/28 05:08:14;;;;;;;1999.90;999.90;;;;;;;-8.83;95.45;102165.06;1719563;82;22275;-66
2020/12/28 05:10:41;;;;;;;1999.90;999.90;;;;;;;-8.99;94.99;102159.92;1709249;82;21021;-62
2020/12/28 05:13:10;;;;;;;1999.90;999.90;;;;;;;-9.11;94.79;102173.48;1709533;82;21032;-63
2020/12/28 05:15:52;;;;;;;1999.90;999.90;;;;;;;-9.20;94.67;102181.03;1702901;82;21064;-62
2020/12/28 05:18:19;;;;;;;1999.90;999.90;;;;;;;-9.28;94.66;102176.86;1705873;82;20989;-62
2020/12/28 05:20:48;;;;;;;1999.90;999.90;;;;;;;-9.27;94.96;102178.55;1703128;82;21563;-66
2020/12/28 05:23:18;;;;;;;1999.90;999.90;;;;;;;-9.25;95.18;102176.58;1706152;82;21023;-66
2020/12/28 05:25:51;;;;;;;1999.90;999.90;;;;;;;-9.21;95.43;102172.63;1705748;81;20973;-66
2020/12/28 05:28:22;;;;;;;1999.90;999.90;;;;;;;-9.16;95.64;102176.23;1721191;82;21513;-66
2020/12/28 05:30:50;;;;;;;1999.90;999.90;;;;;;;-9.12;95.84;102168.26;1703176;82;21706;-66
2020/12/28 05:33:18;;;;;;;1999.90;999.90;;;;;;;-9.01;96.21;102171.30;1709549;82;21267;-62
2020/12/28 05:35:46;;;;;;;1999.90;999.90;;;;;;;-8.88;96.70;102170.02;1703257;82;21551;-66
2020/12/28 05:40:53;;;;;;;1999.90;999.90;;;;;;;-8.49;97.77;102188.74;1836644;76;27860;-63
2020/12/28 05:43:28;;;;;;;1999.90;999.90;;;;;;;-8.35;97.95;102188.78;1815440;77;20953;-64
2020/12/28 05:45:56;;;;;;;1999.90;999.90;;;;;;;-8.17;98.17;102182.97;1825344;77;22198;-64
2020/12/28 05:48:25;;;;;;;1999.90;999.90;;;;;;;-8.03;98.55;102191.89;1828765;77;21008;-68
2020/12/28 05:50:57;;;;;;;1999.90;999.90;;;;;;;-7.91;98.85;102194.74;1817436;77;20925;-64
2020/12/28 05:53:25;;;;;;;1999.90;999.90;;;;;;;-7.80;99.15;102190.52;1828651;77;20972;-63
2020/12/28 05:55:54;;;;;;;1999.90;999.90;;;;;;;-7.69;99.32;102191.31;1823348;77;20967;-68
2020/12/28 05:58:22;;;;;;;1999.90;999.90;;;;;;;-7.62;99.47;102199.97;1784916;79;22232;-64
2020/12/28 06:00:50;;;;;;;1999.90;999.90;;;;;;;-7.56;99.56;102207.94;1754183;80;21543;-68
2020/12/28 06:03:25;;;;;;;1999.90;999.90;;;;;;;-7.49;99.61;102215.75;1789506;79;21031;-69
2020/12/28 06:05:54;;;;;;;1999.90;999.90;;;;;;;-7.43;99.73;102219.19;1754727;80;21571;-69
2020/12/28 06:08:22;;;;;;;1999.90;999.90;;;;;;;-7.36;99.82;102215.39;1790265;79;20968;-68
2020/12/28 06:10:49;;;;;;;1999.90;999.90;;;;;;;-7.30;99.89;102221.02;1769978;80;21352;-68
2020/12/28 06:13:23;;;;;;;1999.90;999.90;;;;;;;-7.25;99.91;102220.56;1762069;80;20996;-64
2020/12/28 06:16:03;;;;;;;1999.90;999.90;;;;;;;-7.13;99.94;102228.77;1880732;75;27993;-62
2020/12/28 06:18:31;;;;;;;1999.90;999.90;;;;;;;-7.14;99.91;102232.45;1786601;78;20928;-63
2020/12/28 06:21:13;;;;;;;1999.90;999.90;;;;;;;-7.09;99.96;102218.05;1785788;80;21380;-63
2020/12/28 06:23:48;;;;;;;1999.90;999.90;;;;;;;-7.04;99.98;102213.05;1788651;79;21580;-67
2020/12/28 06:26:20;;;;;;;1999.90;999.90;;;;;;;-6.97;100.00;102201.17;1787838;78;21000;-67
2020/12/28 06:28:48;;;;;;;1999.90;999.90;;;;;;;-6.92;100.00;102194.32;1788780;79;21111;-67
2020/12/28 06:31:16;;;;;;;1999.90;999.90;;;;;;;-6.85;100.00;102198.09;1789600;80;20976;-65
2020/12/28 06:33:50;;;;;;;1999.90;999.90;;;;;;;-6.80;100.00;102190.89;1814157;78;22001;-63
2020/12/28 06:36:18;;;;;;;1999.90;999.90;;;;;;;-6.73;100.00;102186.58;1783891;79;21029;-68
2020/12/28 06:38:57;;;;;;;1999.90;999.90;;;;;;;-6.65;100.00;102182.60;1797105;78;20981;-67
2020/12/28 06:42:40;;;;;;;1999.90;999.90;;;;;;;-6.48;100.00;102184.92;1761182;79;28753;-61
2020/12/28 06:45:17;;;;;;;1999.90;999.90;;;;;;;-6.47;100.00;102193.34;1726180;81;20965;-68
2020/12/28 06:47:46;;;;;;;1999.90;999.90;;;;;;;-6.41;100.00;102190.52;1713226;83;21374;-64
2020/12/28 06:50:13;;;;;;;1999.90;999.90;;;;;;;-6.37;100.00;102190.55;1712417;83;21128;-68
2020/12/28 06:52:41;;;;;;;1999.90;999.90;;;;;;;-6.34;100.00;102183.49;1713443;83;21002;-64
2020/12/28 06:55:11;;;;;;;1999.90;999.90;;;;;;;-6.30;100.00;102176.28;1709257;82;20977;-64
2020/12/28 06:57:47;;;;;;;1999.90;999.90;;;;;;;-6.17;100.00;102177.20;1862851;76;28123;-64
2020/12/28 07:00:20;;;;;;;1999.90;999.90;;;;;;;-6.18;100.00;102175.02;1830510;77;20969;-68
2020/12/28 07:02:52;;;;;;;1999.90;999.90;;;;;;;-6.14;100.00;102170.14;1834311;77;21344;-64
2020/12/28 07:05:26;;;;;;;1999.90;999.90;;;;;;;-6.07;100.00;102172.55;1762681;80;20991;-65
2020/12/28 07:07:54;;;;;;;1999.90;999.90;;;;;;;-5.99;100.00;102179.83;1761212;80;28821;-65
2020/12/28 07:10:23;;;;;;;1999.90;999.90;;;;;;;-5.89;100.00;102177.86;1764916;80;20960;-70
2020/12/28 07:12:51;;;;;;;1999.90;999.90;;;;;;;-5.81;100.00;102183.75;1760553;80;21028;-65
2020/12/28 07:15:19;;;;;;;1999.90;999.90;;;;;;;-5.74;100.00;102172.16;1777020;80;22277;-65
2020/12/28 07:17:47;;;;;;;1999.90;999.90;;;;;;;-5.67;100.00;102170.50;1763966;80;21559;-69
2020/12/28 07:20:14;;;;;;;1999.90;999.90;;;;;;;-5.65;100.00;102165.79;1769059;80;20969;-64
2020/12/28 07:22:42;;;;;;;1999.90;999.90;;;;;;;-5.62;100.00;102157.88;1779478;80;21124;-65
2020/12/28 07:25:12;;;;;;;1999.90;999.90;;;;;;;-5.58;100.00;102160.58;1772784;80;20949;-69
2020/12/28 07:27:42;;;;;;;1999.90;999.90;;;;;;;-5.53;100.00;102164.98;1758971;80;21432;-69
2020/12/28 07:30:11;;;;;;;1999.90;999.90;;;;;;;-5.47;100.00;102162.13;1781178;80;20949;-69
2020/12/28 07:32:40;;;;;;;1999.90;999.90;;;;;;;-5.36;100.00;102159.13;1761430;80;21104;-69
2020/12/28 07:35:08;;;;;;;1999.90;999.90;;;;;;;-5.26;100.00;102162.52;1767617;80;20933;-65
2020/12/28 07:37:40;;;;;;;1999.90;999.90;;;;;;;-5.21;100.00;102154.27;1770941;80;20969;-69
2020/12/28 07:40:08;;;;;;;1999.90;999.90;;;;;;;-5.15;100.00;102162.23;1775321;80;21293;-68
2020/12/28 07:42:36;;;;;;;1999.90;999.90;;;;;;;-5.10;100.00;102158.53;1769221;80;21123;-68
2020/12/28 07:45:08;;;;;;;1999.90;999.90;;;;;;;-5.04;100.00;102151.11;1785541;79;20972;-68
2020/12/28 07:47:54;;;;;;;1999.90;999.90;;;;;;;-4.91;100.00;102146.56;1826497;76;28260;-62
2020/12/28 07:50:22;;;;;;;1999.90;999.90;;;;;;;-4.87;99.94;102139.81;1793136;79;21553;-68
2020/12/28 07:53:00;;;;;;;1999.90;999.90;;;;;;;-4.78;99.89;102134.74;1765745;80;22180;-63
2020/12/28 07:55:30;;;;;;;1999.90;999.90;;;;;;;-4.68;99.80;102138.62;1775059;80;20977;-63
2020/12/28 07:58:19;;;;;;;1999.90;999.90;;;;;;;-4.60;99.48;102128.64;1768904;79;21590;-64
2020/12/28 08:00:51;;;;;;;1999.90;999.90;;;;;;;-4.51;99.58;102126.77;1768044;79;20933;-68
2020/12/28 08:03:34;;;;;;;1999.90;999.90;;;;;;;-4.39;99.57;102132.16;1774955;80;21096;-68
2020/12/28 08:06:09;;;;;;;1999.90;999.90;;;;;;;-4.33;99.46;102125.22;1769619;80;21606;-68
2020/12/28 08:08:37;;;;;;;1999.90;999.90;;;;;;;-4.28;99.22;102133.66;1771687;80;21122;-68
2020/12/28 08:11:04;;;;;;;1999.90;999.90;;;;;;;-4.26;98.86;102132.47;1769670;80;21032;-68
2020/12/28 08:13:34;;;;;;;1999.90;999.90;;;;;;;-4.20;98.74;102125.52;1770537;80;20977;-68
2020/12/28 08:16:10;;;;;;;1999.90;999.90;;;;;;;-4.17;98.30;102128.39;1770380;80;20973;-64
2020/12/28 08:18:50;;;;;;;1999.90;999.90;;;;;;;-4.14;98.07;102129.39;1780022;80;22091;-69
2020/12/28 08:21:18;;;;;;;1999.90;999.90;;;;;;;-4.10;97.98;102136.14;1774683;80;20996;-69
2020/12/28 08:23:53;;;;;;;1999.90;999.90;;;;;;;-4.08;97.86;102129.54;1769675;80;20996;-69
2020/12/28 08:26:23;;;;;;;1999.90;999.90;;;;;;;-4.04;97.72;102121.92;1777146;80;21507;-65
2020/12/28 08:28:54;;;;;;;1999.90;999.90;;;;;;;-4.05;97.24;102118.37;1774860;80;21112;-63
2020/12/28 08:31:33;;;;;;;1999.90;999.90;;;;;;;-4.04;97.25;102111.11;1771078;80;21370;-68
2020/12/28 08:34:06;;;;;;;1999.90;999.90;;;;;;;-4.03;97.14;102103.33;1779845;80;21000;-68
2020/12/28 08:36:35;;;;;;;1999.90;999.90;;;;;;;-4.03;96.98;102104.17;1774308;79;21159;-68
2020/12/28 08:39:18;;;;;;;1999.90;999.90;;;;;;;-3.98;97.02;102097.72;1775760;80;21000;-63
2020/12/28 08:41:59;;;;;;;1999.90;999.90;;;;;;;-3.93;96.75;102103.95;1777133;80;21014;-68
2020/12/28 08:44:35;;;;;;;1999.90;999.90;;;;;;;-3.85;96.97;102099.02;1770632;80;21496;-63
2020/12/28 08:47:12;;;;;;;1999.90;999.90;;;;;;;-3.82;96.70;102092.75;1778152;79;21031;-63
2020/12/28 08:49:41;;;;;;;1999.90;999.90;;;;;;;-3.79;95.96;102090.20;1775218;79;21522;-68
2020/12/28 08:52:16;;;;;;;1999.90;999.90;;;;;;;-3.75;95.56;102080.20;1796075;79;21541;-68
2020/12/28 08:54:55;;;;;;;1999.90;999.90;;;;;;;-3.71;95.14;102073.41;1784241;79;20952;-63
2020/12/28 08:57:28;;;;;;;1999.90;999.90;;;;;;;-3.69;94.70;102067.31;1774088;79;21352;-64
2020/12/28 08:59:58;;;;;;;1999.90;999.90;;;;;;;-3.65;94.49;102064.58;1786511;79;21037;-68
2020/12/28 09:02:26;;;;;;;1999.90;999.90;;;;;;;-3.61;94.13;102064.55;1752679;79;21526;-63
2020/12/28 09:04:55;;;;;;;1999.90;999.90;;;;;;;-3.58;93.64;102066.91;1795163;78;20960;-63
2020/12/28 09:07:23;;;;;;;1999.90;999.90;;;;;;;-3.57;93.38;102060.98;1791416;79;21541;-63
2020/12/28 09:09:51;;;;;;;1999.90;999.90;;;;;;;-3.52;93.43;102053.67;1794963;79;21203;-62
2020/12/28 09:12:19;;;;;;;1999.90;999.90;;;;;;;-3.47;93.60;102032.33;1788558;79;21110;-68
2020/12/28 09:14:47;;;;;;;1999.90;999.90;;;;;;;-3.42;93.90;102028.05;1759893;80;21146;-68
2020/12/28 09:17:16;;;;;;;1999.90;999.90;;;;;;;-3.33;94.08;102027.48;1772932;80;21025;-68
2020/12/28 09:19:44;;;;;;;1999.90;999.90;;;;;;;-3.26;94.29;102028.44;1747979;81;21086;-68
2020/12/28 09:22:12;;;;;;;1999.90;999.90;;;;;;;-3.19;94.15;102040.22;1750954;81;22320;-69
2020/12/28 09:24:39;;;;;;;1999.90;999.90;;;;;;;-3.15;93.93;102037.48;1751588;80;21139;-70
2020/12/28 09:27:07;;;;;;;1999.90;999.90;;;;;;;-3.14;93.16;102029.69;1745621;81;21105;-64
2020/12/28 09:29:35;;;;;;;1999.90;999.90;;;;;;;-3.11;93.00;102029.32;1761027;80;21530;-63
2020/12/28 09:32:03;;;;;;;1999.90;999.90;;;;;;;-3.09;92.85;102023.20;1744674;80;21091;-63
2020/12/28 09:34:31;;;;;;;1999.90;999.90;;;;;;;-3.08;92.30;102019.47;1709656;83;21968;-69
2020/12/28 09:37:00;;;;;;;1999.90;999.90;;;;;;;-3.06;92.50;102017.42;1754673;81;21104;-63
2020/12/28 09:39:28;;;;;;;1999.90;999.90;;;;;;;-3.01;92.93;102012.81;1769243;80;21190;-63
2020/12/28 09:41:56;;;;;;;1999.90;999.90;;;;;;;-2.95;92.63;102007.50;1748234;80;21106;-63
2020/12/28 09:44:24;;;;;;;1999.90;999.90;;;;;;;-2.88;92.71;101998.63;1766395;80;21956;-63
2020/12/28 09:46:53;;;;;;;1999.90;999.90;;;;;;;-2.83;92.43;101994.85;1745925;81;21352;-63
2020/12/28 09:49:21;;;;;;;1999.90;999.90;;;;;;;-2.76;92.44;101989.02;1738351;81;21585;-63
2020/12/28 09:51:56;;;;;;;1999.90;999.90;;;;;;;-2.70;92.29;101986.41;1742280;80;20936;-70
2020/12/28 09:54:23;;;;;;;1999.90;999.90;;;;;;;-2.64;91.77;101978.87;1745769;81;21611;-68
2020/12/28 09:56:53;;;;;;;1999.90;999.90;;;;;;;-2.58;91.79;101969.16;1749093;80;20980;-63
2020/12/28 09:59:21;;;;;;;1999.90;999.90;;;;;;;-2.55;90.97;101970.66;1747613;80;21816;-69
2020/12/28 10:01:50;;;;;;;1999.90;999.90;;;;;;;-2.52;90.87;101964.86;1736278;82;21126;-69
2020/12/28 10:04:17;;;;;;;1999.90;999.90;;;;;;;-2.49;89.55;101966.67;1731380;82;21031;-70
2020/12/28 10:06:45;;;;;;;1999.90;999.90;;;;;;;-2.45;89.53;101963.91;1783778;80;21546;-70
2020/12/28 10:09:13;;;;;;;1999.90;999.90;;;;;;;-2.37;89.43;101968.39;1767272;80;21016;-69
2020/12/28 10:11:41;;;;;;;1999.90;999.90;;;;;;;-2.33;88.89;101958.84;1771001;80;21363;-69
2020/12/28 10:14:09;;;;;;;1999.90;999.90;;;;;;;-2.28;88.97;101949.63;1768434;80;21008;-69
2020/12/28 10:16:36;;;;;;;1999.90;999.90;;;;;;;-2.24;88.74;101937.88;1777908;80;21111;-70
2020/12/28 10:19:04;;;;;;;1999.90;999.90;;;;;;;-2.20;88.98;101931.05;1773561;80;21126;-70
2020/12/28 10:21:31;;;;;;;1999.90;999.90;;;;;;;-2.15;88.50;101924.53;1773594;80;21514;-64
2020/12/28 10:23:59;;;;;;;1999.90;999.90;;;;;;;-2.10;88.60;101924.80;1775502;80;21209;-69
2020/12/28 10:26:28;;;;;;;1999.90;999.90;;;;;;;-2.06;88.32;101913.37;1773104;80;21117;-63
2020/12/28 10:28:56;;;;;;;1999.90;999.90;;;;;;;-2.00;88.02;101902.27;1779402;80;20984;-63
2020/12/28 10:31:24;;;;;;;1999.90;999.90;;;;;;;-1.99;87.22;101899.36;1778327;80;21091;-63
2020/12/28 10:33:54;;;;;;;1999.90;999.90;;;;;;;-1.89;86.78;101903.63;1772866;79;21115;-63
2020/12/28 10:36:28;;;;;;;1999.90;999.90;;;;;;;-1.84;86.00;101893.86;1785031;80;22086;-69
2020/12/28 10:38:57;;;;;;;1999.90;999.90;;;;;;;-1.83;85.64;101897.42;1777812;80;21499;-62
2020/12/28 10:41:32;;;;;;;1999.90;999.90;;;;;;;-1.80;85.21;101899.23;1772962;80;21078;-63
2020/12/28 10:44:00;;;;;;;1999.90;999.90;;;;;;;-1.75;84.02;101890.50;1776412;80;21118;-70
2020/12/28 10:46:30;;;;;;;1999.90;999.90;;;;;;;-1.68;84.53;101892.23;1777352;79;20989;-63
2020/12/28 10:48:57;;;;;;;1999.90;999.90;;;;;;;-1.63;83.76;101896.56;1768185;80;21367;-63
2020/12/28 10:51:25;;;;;;;1999.90;999.90;;;;;;;-1.60;81.86;101889.06;1769557;80;21103;-70
2020/12/28 10:53:54;;;;;;;1999.90;999.90;;;;;;;-1.55;83.23;101896.10;1756182;80;20993;-70
2020/12/28 10:56:27;;;;;;;1999.90;999.90;;;;;;;-1.54;82.23;101892.34;1758749;80;21076;-70
2020/12/28 10:58:56;;;;;;;1999.90;999.90;;;;;;;-1.55;82.24;101887.44;1766528;80;20972;-71
2020/12/28 11:01:26;;;;;;;1999.90;999.90;;;;;;;-1.56;82.82;101891.19;1767480;80;21322;-64
2020/12/28 11:03:55;;;;;;;1999.90;999.90;;;;;;;-1.56;82.50;101887.11;1769625;80;20996;-63
2020/12/28 11:06:23;;;;;;;1999.90;999.90;;;;;;;-1.58;80.92;101897.33;1772037;80;21535;-70
2020/12/28 11:08:51;;;;;;;1999.90;999.90;;;;;;;-1.59;81.45;101878.01;1758994;80;21127;-70
2020/12/28 11:11:21;;;;;;;1999.90;999.90;;;;;;;-1.62;81.79;101873.81;1774051;80;20976;-63
2020/12/28 11:13:51;;;;;;;1999.90;999.90;;;;;;;-1.62;82.03;101879.23;1771085;80;21358;-63
2020/12/28 11:16:26;;;;;;;1999.90;999.90;;;;;;;-1.62;81.93;101880.59;1768819;80;21158;-63
2020/12/28 11:18:55;;;;;;;1999.90;999.90;;;;;;;-1.59;82.00;101892.09;1765829;80;20918;-70
2020/12/28 11:21:23;;;;;;;1999.90;999.90;;;;;;;-1.61;81.76;101881.44;1769926;80;20965;-70
2020/12/28 11:24:04;;;;;;;1999.90;999.90;;;;;;;-1.59;82.08;101879.36;1773718;80;21012;-64
2020/12/28 11:26:33;;;;;;;1999.90;999.90;;;;;;;-1.58;81.48;101878.84;1774917;80;21400;-64
2020/12/28 11:29:03;;;;;;;1999.90;999.90;;;;;;;-1.58;80.52;101880.20;1769329;80;21147;-63